createdAt,value
2023-05-01T00:01:54.803Z,99896.91
2023-05-01T00:03:58.184Z,99900.19
2023-05-01T00:06:02.193Z,99897.38
2023-05-01T00:08:05.321Z,99898.06
2023-05-01T00:10:09.007Z,99890.91
2023-05-01T00:12:13.414Z,99897.41
2023-05-01T00:14:16.490Z,99889.78
2023-05-01T00:16:19.420Z,99890.25
2023-05-01T00:18:22.450Z,99894.06
2023-05-01T00:20:27.577Z,99888.41
2023-05-01T00:22:30.834Z,99891.06
2023-05-01T00:24:34.044Z,99892.53
2023-05-01T00:26:37.108Z,99893.81
2023-05-01T00:28:41.943Z,99890.75
2023-05-01T00:30:45.798Z,99883.78
2023-05-01T00:32:48.767Z,99881.13
2023-05-01T00:34:52.096Z,99884.97
2023-05-01T00:36:55.154Z,99878.13
2023-05-01T00:38:58.139Z,99880.22
2023-05-01T00:41:01.056Z,99873.09
2023-05-01T00:43:04.134Z,99874.03
2023-05-01T00:45:09.697Z,99872.34
2023-05-01T00:47:12.942Z,99873.84
2023-05-01T00:49:18.073Z,99870.53
2023-05-01T00:51:22.737Z,99871.22
2023-05-01T00:53:27.007Z,99870.66
2023-05-01T00:55:31.457Z,99870.47
2023-05-01T00:57:34.449Z,99874.91
2023-05-01T00:59:38.927Z,99875.75
2023-05-01T01:01:43.884Z,99873.09
2023-05-01T01:03:47.097Z,99872.66
2023-05-01T01:05:53.972Z,99874.31
2023-05-01T01:08:06.256Z,99872.66
2023-05-01T01:10:18.664Z,99875.81
2023-05-01T01:12:27.733Z,99867.84
2023-05-01T01:14:37.109Z,99869.94
2023-05-01T01:16:46.438Z,99861.50
2023-05-01T01:18:55.461Z,99862.03
2023-05-01T01:21:07.165Z,99860.34
2023-05-01T01:23:37.353Z,99856.09
2023-05-01T01:26:03.224Z,99872.72
2023-05-01T01:28:33.728Z,99857.59
2023-05-01T01:30:59.291Z,99864.63
2023-05-01T01:33:23.353Z,99869.91
2023-05-01T01:35:30.129Z,99859.47
2023-05-01T01:37:41.558Z,99864.53
2023-05-01T01:39:49.194Z,99850.34
2023-05-01T01:41:54.103Z,99848.03
2023-05-01T01:44:03.355Z,99859.16
2023-05-01T01:46:08.901Z,99846.50
2023-05-01T01:48:16.594Z,99846.91
2023-05-01T01:50:23.055Z,99860.47
2023-05-01T01:52:29.709Z,99854.69
2023-05-01T01:54:38.099Z,99854.66
2023-05-01T01:56:43.425Z,99855.84
2023-05-01T01:58:47.743Z,99852.88
2023-05-01T02:00:51.553Z,99855.69
2023-05-01T02:02:55.575Z,99853.44
2023-05-01T02:04:59.859Z,99849.13
2023-05-01T02:07:04.885Z,99852.94
2023-05-01T02:09:11.094Z,99853.31
2023-05-01T02:11:16.105Z,99841.41
2023-05-01T02:13:21.396Z,99847.56
2023-05-01T02:15:26.822Z,99845.75
2023-05-01T02:17:30.681Z,99851.44
2023-05-01T02:19:35.389Z,99846.75
2023-05-01T02:21:40.070Z,99844.44
2023-05-01T02:23:43.129Z,99846.09
2023-05-01T02:25:49.329Z,99850.09
2023-05-01T02:27:57.057Z,99845.13
2023-05-01T02:30:00.061Z,99834.63
2023-05-01T02:32:03.982Z,99831.41
2023-05-01T02:34:06.928Z,99825.66
2023-05-01T02:36:09.835Z,99826.66
2023-05-01T02:38:13.944Z,99824.78
2023-05-01T02:40:17.240Z,99823.69
2023-05-01T02:42:24.734Z,99818.38
2023-05-01T02:44:31.008Z,99819.06
2023-05-01T02:46:37.709Z,99820.59
2023-05-01T02:48:42.633Z,99820.81
2023-05-01T02:50:48.928Z,99821.03
2023-05-01T02:52:51.650Z,99815.47
2023-05-01T02:55:10.365Z,99814.19
2023-05-01T02:57:13.318Z,99817.78
2023-05-01T02:59:17.825Z,99813.59
2023-05-01T03:01:21.156Z,99806.97
2023-05-01T03:03:24.279Z,99810.47
2023-05-01T03:05:27.641Z,99808.28
2023-05-01T03:07:35.478Z,99806.53
2023-05-01T03:09:38.758Z,99808.38
2023-05-01T03:11:41.819Z,99808.59
2023-05-01T03:13:44.848Z,99806.25
2023-05-01T03:15:49.395Z,99811.59
2023-05-01T03:17:52.248Z,99801.75
2023-05-01T03:19:55.701Z,99806.75
2023-05-01T03:21:59.580Z,99809.59
2023-05-01T03:24:02.686Z,99813.88
2023-05-01T03:26:08.054Z,99812.50
2023-05-01T03:28:11.517Z,99810.34
2023-05-01T03:30:14.818Z,99811.53
2023-05-01T03:32:20.126Z,99813.50
2023-05-01T03:34:24.396Z,99805.19
2023-05-01T03:36:28.033Z,99804.59
2023-05-01T03:38:31.811Z,99805.94
2023-05-01T03:40:46.550Z,99799.53
2023-05-01T03:43:08.031Z,99788.94
2023-05-01T03:45:11.886Z,99791.16
2023-05-01T03:47:14.911Z,99791.91
2023-05-01T03:49:20.381Z,99787.81
2023-05-01T03:51:24.736Z,99791.50
2023-05-01T03:53:29.912Z,99791.75
2023-05-01T03:55:34.004Z,99790.00
2023-05-01T03:57:37.780Z,99794.06
2023-05-01T03:59:44.071Z,99797.84
2023-05-01T04:01:47.951Z,99789.19
2023-05-01T04:03:52.494Z,99796.44
2023-05-01T04:05:57.786Z,99792.19
2023-05-01T04:08:00.808Z,99797.06
2023-05-01T04:10:05.066Z,99789.97
2023-05-01T04:12:07.987Z,99795.28
2023-05-01T04:14:10.976Z,99788.06
2023-05-01T04:16:14.710Z,99791.03
2023-05-01T04:18:17.668Z,99793.31
2023-05-01T04:20:20.743Z,99793.69
2023-05-01T04:22:25.399Z,99788.94
2023-05-01T04:24:28.849Z,99795.03
2023-05-01T04:26:31.818Z,99804.22
2023-05-01T04:28:36.596Z,99790.41
2023-05-01T04:30:40.800Z,99791.28
2023-05-01T04:32:44.401Z,99795.91
2023-05-01T04:34:47.800Z,99790.81
2023-05-01T04:36:52.171Z,99793.06
2023-05-01T04:38:56.833Z,99794.31
2023-05-01T04:40:59.787Z,99790.47
2023-05-01T04:43:03.736Z,99791.44
2023-05-01T04:45:08.050Z,99791.41
2023-05-01T04:47:12.700Z,99799.19
2023-05-01T04:49:15.723Z,99790.25
2023-05-01T04:51:18.593Z,99789.41
2023-05-01T04:53:22.079Z,99787.94
2023-05-01T04:55:27.165Z,99792.47
2023-05-01T04:58:00.150Z,99793.91
2023-05-01T05:00:03.801Z,99790.19
2023-05-01T05:02:09.619Z,99795.25
2023-05-01T05:04:12.980Z,99790.91
2023-05-01T05:06:16.092Z,99794.25
2023-05-01T05:08:19.085Z,99795.50
2023-05-01T05:10:32.344Z,99787.84
2023-05-01T05:12:53.432Z,99797.66
2023-05-01T05:14:56.688Z,99786.56
2023-05-01T05:16:59.853Z,99798.53
2023-05-01T05:19:03.892Z,99793.78
2023-05-01T05:21:11.944Z,99796.88
2023-05-01T05:23:20.427Z,99796.97
2023-05-01T05:25:24.655Z,99802.19
2023-05-01T05:27:29.597Z,99800.22
2023-05-01T05:29:33.444Z,99794.84
2023-05-01T05:31:36.365Z,99810.09
2023-05-01T05:33:39.745Z,99798.19
2023-05-01T05:35:43.572Z,99808.59
2023-05-01T05:37:46.791Z,99800.38
2023-05-01T05:39:49.728Z,99786.13
2023-05-01T05:41:54.073Z,99793.94
2023-05-01T05:43:59.134Z,99800.59
2023-05-01T05:46:02.558Z,99791.66
2023-05-01T05:48:08.644Z,99791.69
2023-05-01T05:50:15.376Z,99799.44
2023-05-01T05:52:20.472Z,99795.09
2023-05-01T05:54:23.650Z,99791.31
2023-05-01T05:56:26.764Z,99791.09
2023-05-01T05:58:29.692Z,99789.69
2023-05-01T06:00:34.237Z,99789.47
2023-05-01T06:02:40.893Z,99791.78
2023-05-01T06:04:43.814Z,99785.53
2023-05-01T06:06:47.136Z,99783.81
2023-05-01T06:08:50.138Z,99787.00
2023-05-01T06:10:53.190Z,99786.16
2023-05-01T06:13:13.624Z,99776.69
2023-05-01T06:15:19.080Z,99789.03
2023-05-01T06:17:30.087Z,99789.88
2023-05-01T06:19:33.351Z,99788.69
2023-05-01T06:21:43.248Z,99791.25
2023-05-01T06:23:46.959Z,99794.50
2023-05-01T06:26:13.248Z,99789.03
2023-05-01T06:28:16.986Z,99791.47
2023-05-01T06:30:20.299Z,99791.72
2023-05-01T06:32:23.781Z,99780.88
2023-05-01T06:34:28.369Z,99781.81
2023-05-01T06:36:32.217Z,99782.25
2023-05-01T06:38:35.135Z,99778.16
2023-05-01T06:40:38.222Z,99786.47
2023-05-01T06:42:42.351Z,99781.50
2023-05-01T06:44:45.584Z,99781.28
2023-05-01T06:46:48.554Z,99783.31
2023-05-01T06:48:51.505Z,99790.63
2023-05-01T06:50:56.414Z,99783.75
2023-05-01T06:53:01.315Z,99770.00
2023-05-01T06:55:04.489Z,99777.47
2023-05-01T06:57:08.049Z,99775.09
2023-05-01T06:59:11.282Z,99777.94
2023-05-01T07:01:14.473Z,99773.75
2023-05-01T07:03:17.670Z,99778.69
2023-05-01T07:05:21.367Z,99772.41
2023-05-01T07:07:25.743Z,99767.41
2023-05-01T07:09:28.753Z,99768.25
2023-05-01T07:11:32.896Z,99771.81
2023-05-01T07:13:35.843Z,99777.81
2023-05-01T07:15:38.913Z,99773.81
2023-05-01T07:17:41.856Z,99775.91
2023-05-01T07:19:44.692Z,99763.63
2023-05-01T07:21:47.651Z,99766.25
2023-05-01T07:23:52.262Z,99765.63
2023-05-01T07:25:55.197Z,99760.28
2023-05-01T07:27:58.460Z,99761.41
2023-05-01T07:30:02.142Z,99757.75
2023-05-01T07:32:06.945Z,99760.75
2023-05-01T07:34:10.528Z,99756.78
2023-05-01T07:36:13.399Z,99744.19
2023-05-01T07:38:16.973Z,99749.97
2023-05-01T07:40:21.616Z,99759.63
2023-05-01T07:42:24.817Z,99755.78
2023-05-01T07:44:27.759Z,99759.81
2023-05-01T07:46:31.756Z,99744.38
2023-05-01T07:48:36.887Z,99756.97
2023-05-01T07:50:41.178Z,99758.06
2023-05-01T07:52:44.273Z,99743.25
2023-05-01T07:54:51.145Z,99749.22
2023-05-01T07:56:56.627Z,99745.22
2023-05-01T07:58:59.718Z,99744.53
2023-05-01T08:01:02.721Z,99751.50
2023-05-01T08:03:05.935Z,99741.25
2023-05-01T08:05:09.687Z,99739.91
2023-05-01T08:07:12.698Z,99734.00
2023-05-01T08:09:15.593Z,99736.94
2023-05-01T08:11:18.873Z,99740.09
2023-05-01T08:13:23.270Z,99732.91
2023-05-01T08:15:26.649Z,99738.19
2023-05-01T08:17:29.668Z,99727.81
2023-05-01T08:19:32.649Z,99726.50
2023-05-01T08:21:35.827Z,99732.69
2023-05-01T08:23:39.434Z,99725.13
2023-05-01T08:25:42.329Z,99736.47
2023-05-01T08:27:45.351Z,99732.25
2023-05-01T08:29:50.133Z,99721.66
2023-05-01T08:31:53.138Z,99716.34
2023-05-01T08:33:56.279Z,99721.03
2023-05-01T08:35:59.550Z,99716.06
2023-05-01T08:38:02.741Z,99714.22
2023-05-01T08:40:09.264Z,99728.34
2023-05-01T08:42:13.899Z,99718.78
2023-05-01T08:44:17.813Z,99719.47
2023-05-01T08:46:29.681Z,99716.94
2023-05-01T08:48:35.856Z,99715.78
2023-05-01T08:50:40.495Z,99724.28
2023-05-01T08:52:44.595Z,99726.69
2023-05-01T08:54:51.046Z,99718.78
2023-05-01T08:56:56.364Z,99717.75
2023-05-01T08:59:01.536Z,99717.72
2023-05-01T09:01:05.042Z,99717.34
2023-05-01T09:03:12.579Z,99703.59
2023-05-01T09:05:17.563Z,99707.56
2023-05-01T09:07:20.622Z,99709.59
2023-05-01T09:09:23.606Z,99702.25
2023-05-01T09:11:26.813Z,99703.63
2023-05-01T09:13:29.781Z,99705.44
2023-05-01T09:15:34.149Z,99701.06
2023-05-01T09:17:37.297Z,99695.31
2023-05-01T09:19:42.070Z,99695.47
2023-05-01T09:21:45.216Z,99700.22
2023-05-01T09:23:51.543Z,99692.41
2023-05-01T09:25:55.693Z,99696.56
2023-05-01T09:27:58.543Z,99688.97
2023-05-01T09:30:01.597Z,99690.44
2023-05-01T09:32:16.450Z,99685.72
2023-05-01T09:34:22.312Z,99682.78
2023-05-01T09:36:28.330Z,99680.34
2023-05-01T09:38:31.344Z,99681.72
2023-05-01T09:40:34.404Z,99683.91
2023-05-01T09:42:38.844Z,99687.13
2023-05-01T09:44:45.502Z,99676.22
2023-05-01T09:46:49.871Z,99673.72
2023-05-01T09:48:59.128Z,99674.50
2023-05-01T09:51:02.414Z,99667.38
2023-05-01T09:53:06.908Z,99669.78
2023-05-01T09:55:14.198Z,99662.28
2023-05-01T09:57:17.773Z,99661.38
2023-05-01T09:59:21.724Z,99665.81
2023-05-01T10:01:41.382Z,99660.47
2023-05-01T10:03:46.325Z,99661.94
2023-05-01T10:05:49.396Z,99659.44
2023-05-01T10:07:59.778Z,99671.25
2023-05-01T10:10:20.284Z,99667.06
2023-05-01T10:12:27.224Z,99657.81
2023-05-01T10:14:30.828Z,99661.44
2023-05-01T10:16:36.193Z,99651.69
2023-05-01T10:18:39.277Z,99648.97
2023-05-01T10:20:42.368Z,99646.25
2023-05-01T10:22:45.322Z,99644.59
2023-05-01T10:24:48.432Z,99645.91
2023-05-01T10:26:54.119Z,99641.88
2023-05-01T10:29:00.277Z,99635.88
2023-05-01T10:31:04.159Z,99640.44
2023-05-01T10:33:07.651Z,99633.16
2023-05-01T10:35:14.791Z,99637.72
2023-05-01T10:37:20.094Z,99627.13
2023-05-01T10:39:35.375Z,99620.28
2023-05-01T10:42:11.524Z,99629.03
2023-05-01T10:44:22.155Z,99616.28
2023-05-01T10:46:28.511Z,99618.09
2023-05-01T10:48:58.041Z,99612.16
2023-05-01T10:51:13.808Z,99603.47
2023-05-01T10:53:19.925Z,99620.59
2023-05-01T10:55:35.694Z,99604.28
2023-05-01T10:57:46.717Z,99600.97
2023-05-01T11:00:11.569Z,99592.31
2023-05-01T11:02:23.532Z,99591.78
2023-05-01T11:04:52.336Z,99594.44
2023-05-01T11:07:18.585Z,99586.56
2023-05-01T11:09:41.512Z,99585.13
2023-05-01T11:11:50.642Z,99575.72
2023-05-01T11:13:59.082Z,99572.56
2023-05-01T11:16:42.338Z,99566.38
2023-05-01T11:18:48.446Z,99562.47
2023-05-01T11:20:51.494Z,99560.09
2023-05-01T11:22:56.065Z,99558.81
2023-05-01T11:24:59.321Z,99561.22
2023-05-01T11:27:03.767Z,99558.66
2023-05-01T11:29:10.572Z,99557.56
2023-05-01T11:31:18.689Z,99549.44
2023-05-01T11:33:26.325Z,99546.47
2023-05-01T11:35:30.136Z,99539.50
2023-05-01T11:37:44.578Z,99538.53
2023-05-01T11:39:49.746Z,99527.53
2023-05-01T11:42:07.235Z,99531.41
2023-05-01T11:44:13.266Z,99534.06
2023-05-01T11:46:23.538Z,99533.56
2023-05-01T11:48:27.322Z,99521.03
2023-05-01T11:50:34.273Z,99512.44
2023-05-01T11:52:44.550Z,99520.66
2023-05-01T11:54:50.205Z,99516.09
2023-05-01T11:57:00.362Z,99505.19
2023-05-01T11:59:12.651Z,99502.81
2023-05-01T12:01:15.680Z,99502.00
2023-05-01T12:03:18.973Z,99507.84
2023-05-01T12:05:23.731Z,99504.22
2023-05-01T12:07:26.537Z,99501.81
2023-05-01T12:09:30.239Z,99501.84
2023-05-01T12:11:33.298Z,99500.47
2023-05-01T12:13:36.723Z,99493.75
2023-05-01T12:15:43.627Z,99495.22
2023-05-01T12:17:48.512Z,99485.81
2023-05-01T12:19:51.680Z,99481.59
2023-05-01T12:22:06.638Z,99482.00
2023-05-01T12:24:11.051Z,99474.66
2023-05-01T12:26:18.183Z,99475.59
2023-05-01T12:28:21.069Z,99472.47
2023-05-01T12:30:27.150Z,99463.91
2023-05-01T12:32:32.793Z,99470.03
2023-05-01T12:34:36.166Z,99456.56
2023-05-01T12:36:39.580Z,99457.19
2023-05-01T12:38:42.546Z,99461.44
2023-05-01T12:40:53.709Z,99461.53
2023-05-01T12:42:58.387Z,99450.00
2023-05-01T12:45:02.146Z,99449.34
2023-05-01T12:47:07.464Z,99435.53
2023-05-01T12:49:17.951Z,99446.81
2023-05-01T12:51:21.473Z,99443.75
2023-05-01T12:53:26.134Z,99436.88
2023-05-01T12:55:29.324Z,99439.09
2023-05-01T12:57:32.483Z,99428.34
2023-05-01T12:59:37.294Z,99433.97
2023-05-01T13:01:40.350Z,99430.94
2023-05-01T13:03:44.719Z,99425.44
2023-05-01T13:05:54.148Z,99424.84
2023-05-01T13:07:57.107Z,99420.13
2023-05-01T13:10:00.902Z,99423.41
2023-05-01T13:12:06.337Z,99421.09
2023-05-01T13:14:10.044Z,99420.53
2023-05-01T13:16:14.038Z,99414.69
2023-05-01T13:18:17.046Z,99414.06
2023-05-01T13:20:29.677Z,99405.94
2023-05-01T13:22:35.961Z,99407.88
2023-05-01T13:24:40.346Z,99406.34
2023-05-01T13:26:43.241Z,99405.66
2023-05-01T13:28:46.207Z,99401.00
2023-05-01T13:30:49.131Z,99403.09
2023-05-01T13:32:52.062Z,99389.09
2023-05-01T13:34:55.103Z,99390.19
2023-05-01T13:36:58.953Z,99385.22
2023-05-01T13:39:03.663Z,99389.31
2023-05-01T13:41:06.952Z,99385.59
2023-05-01T13:43:16.001Z,99390.28
2023-05-01T13:45:21.626Z,99379.31
2023-05-01T13:47:29.003Z,99385.44
2023-05-01T13:49:32.312Z,99382.13
2023-05-01T13:51:38.061Z,99392.22
2023-05-01T13:53:42.318Z,99379.59
2023-05-01T13:55:46.790Z,99359.97
2023-05-01T13:57:49.854Z,99360.03
2023-05-01T13:59:53.326Z,99354.06
2023-05-01T14:01:56.340Z,99367.78
2023-05-01T14:04:00.818Z,99365.03
2023-05-01T14:06:05.102Z,99354.38
2023-05-01T14:08:09.362Z,99358.00
2023-05-01T14:10:12.468Z,99350.63
2023-05-01T14:12:19.903Z,99353.53
2023-05-01T14:14:22.826Z,99337.63
2023-05-01T14:16:26.982Z,99334.50
2023-05-01T14:18:30.198Z,99330.47
2023-05-01T14:20:33.089Z,99328.69
2023-05-01T14:22:44.763Z,99328.41
2023-05-01T14:24:47.695Z,99329.09
2023-05-01T14:26:50.795Z,99331.31
2023-05-01T14:28:55.858Z,99321.03
2023-05-01T14:30:58.966Z,99322.50
2023-05-01T14:33:02.769Z,99322.28
2023-05-01T14:35:10.428Z,99313.97
2023-05-01T14:37:17.618Z,99311.13
2023-05-01T14:39:20.585Z,99315.09
2023-05-01T14:41:23.470Z,99313.06
2023-05-01T14:43:28.517Z,99307.84
2023-05-01T14:45:33.000Z,99311.22
2023-05-01T14:47:36.503Z,99303.03
2023-05-01T14:49:43.095Z,99298.03
2023-05-01T14:51:46.265Z,99295.22
2023-05-01T14:53:49.496Z,99293.16
2023-05-01T14:55:52.871Z,99293.75
2023-05-01T14:57:56.640Z,99279.25
2023-05-01T14:59:59.775Z,99282.59
2023-05-01T15:02:04.218Z,99283.78
2023-05-01T15:04:11.982Z,99285.91
2023-05-01T15:06:15.036Z,99289.00
2023-05-01T15:08:17.968Z,99282.88
2023-05-01T15:10:23.760Z,99288.34
2023-05-01T15:12:27.081Z,99287.00
2023-05-01T15:14:29.962Z,99277.56
2023-05-01T15:16:33.298Z,99277.78
2023-05-01T15:18:37.724Z,99268.91
2023-05-01T15:20:41.326Z,99272.44
2023-05-01T15:22:44.293Z,99270.00
2023-05-01T15:24:47.249Z,99270.31
2023-05-01T15:26:50.336Z,99268.31
2023-05-01T15:28:53.542Z,99273.03
2023-05-01T15:30:56.624Z,99258.81
2023-05-01T15:32:59.868Z,99264.94
2023-05-01T15:35:04.604Z,99275.97
2023-05-01T15:37:07.816Z,99265.41
2023-05-01T15:39:12.269Z,99264.59
2023-05-01T15:41:17.616Z,99266.94
2023-05-01T15:43:22.607Z,99261.81
2023-05-01T15:45:25.871Z,99260.94
2023-05-01T15:47:28.810Z,99262.56
2023-05-01T15:49:31.677Z,99256.34
2023-05-01T15:51:36.333Z,99251.53
2023-05-01T15:53:39.385Z,99246.66
2023-05-01T15:55:42.300Z,99260.81
2023-05-01T15:57:47.681Z,99259.97
2023-05-01T15:59:54.220Z,99254.88
2023-05-01T16:01:57.797Z,99263.31
2023-05-01T16:04:01.351Z,99254.03
2023-05-01T16:06:04.765Z,99258.56
2023-05-01T16:08:09.128Z,99262.47
2023-05-01T16:10:12.586Z,99248.94
2023-05-01T16:12:15.816Z,99248.25
2023-05-01T16:14:18.786Z,99249.72
2023-05-01T16:16:26.004Z,99250.84
2023-05-01T16:18:29.256Z,99245.19
2023-05-01T16:20:35.468Z,99238.63
2023-05-01T16:22:39.735Z,99236.97
2023-05-01T16:24:44.246Z,99244.25
2023-05-01T16:26:47.345Z,99236.69
2023-05-01T16:28:50.886Z,99233.28
2023-05-01T16:30:53.930Z,99232.59
2023-05-01T16:32:56.940Z,99225.56
2023-05-01T16:35:00.318Z,99224.34
2023-05-01T16:37:03.686Z,99225.25
2023-05-01T16:39:09.536Z,99224.72
2023-05-01T16:41:19.116Z,99224.97
2023-05-01T16:43:23.004Z,99224.16
2023-05-01T16:45:26.876Z,99232.69
2023-05-01T16:47:29.965Z,99229.94
2023-05-01T16:49:33.013Z,99223.72
2023-05-01T16:51:36.539Z,99232.53
2023-05-01T16:53:39.472Z,99225.16
2023-05-01T16:55:42.553Z,99222.97
2023-05-01T16:57:46.875Z,99231.47
2023-05-01T16:59:50.211Z,99214.56
2023-05-01T17:01:53.258Z,99221.25
2023-05-01T17:03:56.696Z,99228.09
2023-05-01T17:05:59.843Z,99220.16
2023-05-01T17:08:03.684Z,99222.69
2023-05-01T17:10:08.093Z,99217.97
2023-05-01T17:12:11.007Z,99225.56
2023-05-01T17:14:15.505Z,99221.63
2023-05-01T17:16:19.766Z,99221.34
2023-05-01T17:18:22.975Z,99212.38
2023-05-01T17:20:25.942Z,99213.47
2023-05-01T17:22:29.314Z,99219.75
2023-05-01T17:24:32.643Z,99217.91
2023-05-01T17:26:35.474Z,99214.13
2023-05-01T17:28:39.733Z,99217.94
2023-05-01T17:30:44.152Z,99217.38
2023-05-01T17:32:47.206Z,99219.81
2023-05-01T17:34:50.135Z,99216.84
2023-05-01T17:36:53.770Z,99217.63
2023-05-01T17:38:57.843Z,99208.41
2023-05-01T17:41:00.777Z,99213.28
2023-05-01T17:43:03.781Z,99213.84
2023-05-01T17:45:08.038Z,99215.66
2023-05-01T17:47:12.473Z,99218.31
2023-05-01T17:49:15.549Z,99213.44
2023-05-01T17:51:18.477Z,99222.91
2023-05-01T17:53:23.400Z,99210.72
2023-05-01T17:55:27.857Z,99215.78
2023-05-01T17:57:31.048Z,99223.38
2023-05-01T17:59:33.949Z,99230.63
2023-05-01T18:01:37.162Z,99228.69
2023-05-01T18:03:41.620Z,99234.50
2023-05-01T18:05:45.374Z,99235.38
2023-05-01T18:07:48.215Z,99236.19
2023-05-01T18:09:51.168Z,99227.75
2023-05-01T18:11:54.482Z,99227.41
2023-05-01T18:13:57.484Z,99231.03
2023-05-01T18:16:00.378Z,99234.19
2023-05-01T18:18:03.478Z,99235.75
2023-05-01T18:20:09.283Z,99233.09
2023-05-01T18:22:12.388Z,99232.03
2023-05-01T18:24:15.213Z,99241.22
2023-05-01T18:26:19.625Z,99241.03
2023-05-01T18:28:22.634Z,99238.47
2023-05-01T18:30:25.787Z,99238.50
2023-05-01T18:32:43.276Z,99231.03
2023-05-01T18:34:51.785Z,99249.06
2023-05-01T18:36:56.119Z,99239.72
2023-05-01T18:38:59.320Z,99244.41
2023-05-01T18:41:02.210Z,99244.16
2023-05-01T18:43:05.590Z,99247.84
2023-05-01T18:45:10.531Z,99244.19
2023-05-01T18:47:13.585Z,99243.47
2023-05-01T18:49:21.298Z,99249.13
2023-05-01T18:51:24.377Z,99247.06
2023-05-01T18:53:28.636Z,99251.56
2023-05-01T18:55:31.680Z,99241.09
2023-05-01T18:57:36.406Z,99246.31
2023-05-01T18:59:39.266Z,99250.91
2023-05-01T19:01:42.380Z,99245.78
2023-05-01T19:03:45.278Z,99249.19
2023-05-01T19:05:48.476Z,99253.44
2023-05-01T19:07:51.529Z,99251.81
2023-05-01T19:09:55.965Z,99252.44
2023-05-01T19:11:58.824Z,99253.63
2023-05-01T19:14:01.549Z,99254.41
2023-05-01T19:16:04.736Z,99255.13
2023-05-01T19:18:08.293Z,99249.72
2023-05-01T19:20:11.837Z,99251.50
2023-05-01T19:22:14.554Z,99255.38
2023-05-01T19:24:17.409Z,99262.81
2023-05-01T19:26:22.280Z,99247.34
2023-05-01T19:28:25.127Z,99255.81
2023-05-01T19:30:28.111Z,99258.38
2023-05-01T19:32:31.019Z,99255.50
2023-05-01T19:34:33.883Z,99264.94
2023-05-01T19:36:36.948Z,99265.06
2023-05-01T19:38:39.847Z,99258.81
2023-05-01T19:40:42.941Z,99268.56
2023-05-01T19:42:47.293Z,99268.63
2023-05-01T19:44:50.112Z,99262.94
2023-05-01T19:46:52.962Z,99264.00
2023-05-01T19:48:55.922Z,99263.28
2023-05-01T19:50:58.793Z,99270.88
2023-05-01T19:53:01.924Z,99266.97
2023-05-01T19:55:06.165Z,99269.19
2023-05-01T19:57:09.501Z,99268.59
2023-05-01T19:59:13.930Z,99271.56
2023-05-01T20:01:17.093Z,99263.22
2023-05-01T20:03:20.066Z,99266.19
2023-05-01T20:05:28.362Z,99268.66
2023-05-01T20:07:31.584Z,99270.53
2023-05-01T20:09:34.531Z,99286.00
2023-05-01T20:11:37.666Z,99284.00
2023-05-01T20:13:40.735Z,99288.34
2023-05-01T20:15:45.040Z,99282.22
2023-05-01T20:17:50.709Z,99269.97
2023-05-01T20:19:53.611Z,99276.41
2023-05-01T20:21:56.477Z,99271.03
2023-05-01T20:23:59.352Z,99273.72
2023-05-01T20:26:02.363Z,99276.44
2023-05-01T20:28:05.566Z,99274.31
2023-05-01T20:30:12.969Z,99274.09
2023-05-01T20:32:18.110Z,99273.94
2023-05-01T20:34:22.382Z,99269.03
2023-05-01T20:36:25.634Z,99275.59
2023-05-01T20:38:28.563Z,99275.44
2023-05-01T20:40:32.328Z,99278.25
2023-05-01T20:42:35.211Z,99280.78
2023-05-01T20:44:38.072Z,99281.53
2023-05-01T20:46:41.078Z,99284.47
2023-05-01T20:48:47.717Z,99279.56
2023-05-01T20:50:50.606Z,99286.06
2023-05-01T20:52:55.598Z,99282.28
2023-05-01T20:54:58.509Z,99286.63
2023-05-01T20:57:03.101Z,99280.53
2023-05-01T20:59:07.758Z,99277.78
2023-05-01T21:01:11.040Z,99280.69
2023-05-01T21:03:15.528Z,99278.81
2023-05-01T21:05:20.152Z,99282.97
2023-05-01T21:07:23.257Z,99273.72
2023-05-01T21:09:26.470Z,99277.66
2023-05-01T21:11:29.434Z,99273.78
2023-05-01T21:13:32.717Z,99277.56
2023-05-01T21:15:35.838Z,99272.13
2023-05-01T21:17:40.692Z,99274.97
2023-05-01T21:19:45.718Z,99278.06
2023-05-01T21:21:50.201Z,99273.75
2023-05-01T21:23:53.293Z,99279.31
2023-05-01T21:25:56.461Z,99272.38
2023-05-01T21:28:02.400Z,99277.75
2023-05-01T21:30:06.448Z,99269.69
2023-05-01T21:32:09.371Z,99280.88
2023-05-01T21:34:13.160Z,99274.31
2023-05-01T21:36:18.593Z,99279.41
2023-05-01T21:38:23.123Z,99285.16
2023-05-01T21:40:27.053Z,99283.09
2023-05-01T21:42:35.863Z,99273.31
2023-05-01T21:44:39.576Z,99275.47
2023-05-01T21:46:43.345Z,99272.59
2023-05-01T21:48:50.879Z,99270.78
2023-05-01T21:50:53.795Z,99267.44
2023-05-01T21:52:56.878Z,99267.81
2023-05-01T21:55:01.995Z,99270.25
2023-05-01T21:57:07.852Z,99270.59
2023-05-01T21:59:11.676Z,99273.41
2023-05-01T22:01:17.141Z,99273.56
2023-05-01T22:03:21.464Z,99274.66
2023-05-01T22:05:24.602Z,99264.25
2023-05-01T22:07:27.643Z,99264.03
2023-05-01T22:09:30.817Z,99262.81
2023-05-01T22:11:35.254Z,99274.06
2023-05-01T22:13:38.235Z,99265.41
2023-05-01T22:15:41.837Z,99268.16
2023-05-01T22:17:45.402Z,99274.38
2023-05-01T22:19:48.404Z,99269.38
2023-05-01T22:21:51.396Z,99268.16
2023-05-01T22:23:55.678Z,99274.53
2023-05-01T22:26:01.421Z,99275.13
2023-05-01T22:28:06.373Z,99267.94
2023-05-01T22:30:10.035Z,99265.03
2023-05-01T22:32:13.248Z,99266.28
2023-05-01T22:34:16.568Z,99268.31
2023-05-01T22:36:19.406Z,99263.78
2023-05-01T22:38:22.348Z,99265.41
2023-05-01T22:40:25.388Z,99271.81
2023-05-01T22:42:28.342Z,99268.47
2023-05-01T22:44:33.669Z,99272.81
2023-05-01T22:46:36.629Z,99262.34
2023-05-01T22:48:39.399Z,99263.63
2023-05-01T22:50:43.243Z,99262.78
2023-05-01T22:52:46.610Z,99269.78
2023-05-01T22:54:52.922Z,99268.91
2023-05-01T22:56:56.585Z,99262.34
2023-05-01T22:58:59.589Z,99261.47
2023-05-01T23:01:03.929Z,99260.41
2023-05-01T23:03:07.436Z,99268.31
2023-05-01T23:05:11.763Z,99265.81
2023-05-01T23:07:14.723Z,99265.66
2023-05-01T23:09:18.006Z,99265.84
2023-05-01T23:11:21.665Z,99266.66
2023-05-01T23:13:24.565Z,99264.22
2023-05-01T23:15:27.616Z,99264.38
2023-05-01T23:17:35.398Z,99260.31
2023-05-01T23:19:40.607Z,99266.50
2023-05-01T23:21:43.406Z,99259.53
2023-05-01T23:23:47.190Z,99264.91
2023-05-01T23:25:50.957Z,99260.66
2023-05-01T23:27:55.846Z,99258.94
2023-05-01T23:29:59.317Z,99256.94
2023-05-01T23:32:02.907Z,99258.59
2023-05-01T23:34:07.292Z,99253.44
2023-05-01T23:36:13.425Z,99257.16
2023-05-01T23:38:16.396Z,99255.94
2023-05-01T23:40:19.478Z,99252.69
2023-05-01T23:42:23.075Z,99255.53
2023-05-01T23:44:26.017Z,99244.00
2023-05-01T23:46:29.709Z,99244.59
2023-05-01T23:48:33.882Z,99241.09
2023-05-01T23:50:38.575Z,99238.88
2023-05-01T23:52:41.489Z,99238.25
2023-05-01T23:54:44.395Z,99239.66
2023-05-01T23:56:47.361Z,99244.81
2023-05-01T23:58:50.211Z,99241.31
